sensor_id;sensor_type;location;lat;lon;timestamp;pressure;altitude;pressure_sealevel;temperature;humidity
42247;BME280;27913;42.722;23.268;2022-12-07T00:01:20;94936.34;;;5.58;94.75
42247;BME280;27913;42.722;23.268;2022-12-07T00:03:47;94952.69;;;5.68;94.28
42247;BME280;27913;42.722;23.268;2022-12-07T00:06:14;94951.50;;;5.63;94.89
42247;BME280;27913;42.722;23.268;2022-12-07T00:08:41;94986.31;;;5.80;94.70
42247;BME280;27913;42.722;23.268;2022-12-07T00:11:12;94959.84;;;5.66;95.11
42247;BME280;27913;42.722;23.268;2022-12-07T00:13:39;94981.06;;;5.72;95.64
42247;BME280;27913;42.722;23.268;2022-12-07T00:16:10;94951.63;;;5.53;95.67
42247;BME280;27913;42.722;23.268;2022-12-07T00:18:36;94955.19;;;5.52;95.66
42247;BME280;27913;42.722;23.268;2022-12-07T00:21:09;94983.06;;;5.78;95.55
42247;BME280;27913;42.722;23.268;2022-12-07T00:23:35;94986.47;;;5.78;95.52
42247;BME280;27913;42.722;23.268;2022-12-07T00:26:09;94991.84;;;5.77;95.44
42247;BME280;27913;42.722;23.268;2022-12-07T00:28:35;94985.97;;;5.75;95.40
42247;BME280;27913;42.722;23.268;2022-12-07T00:31:05;94990.22;;;5.76;95.61
42247;BME280;27913;42.722;23.268;2022-12-07T00:33:32;94999.31;;;5.72;95.52
42247;BME280;27913;42.722;23.268;2022-12-07T00:35:59;94979.34;;;5.54;95.85
42247;BME280;27913;42.722;23.268;2022-12-07T00:38:26;94998.03;;;5.67;96.00
42247;BME280;27913;42.722;23.268;2022-12-07T00:41:03;94967.13;;;5.54;95.75
42247;BME280;27913;42.722;23.268;2022-12-07T00:43:30;94989.22;;;5.68;95.91
42247;BME280;27913;42.722;23.268;2022-12-07T00:45:56;94987.59;;;5.67;95.98
42247;BME280;27913;42.722;23.268;2022-12-07T00:48:22;94982.19;;;5.69;95.94
42247;BME280;27913;42.722;23.268;2022-12-07T00:50:48;94962.91;;;5.53;95.90
42247;BME280;27913;42.722;23.268;2022-12-07T00:53:15;94961.56;;;5.49;96.07
42247;BME280;27913;42.722;23.268;2022-12-07T00:55:41;94965.50;;;5.53;96.32
42247;BME280;27913;42.722;23.268;2022-12-07T00:58:07;94979.75;;;5.67;96.21
42247;BME280;27913;42.722;23.268;2022-12-07T01:00:32;94954.25;;;5.53;96.28
42247;BME280;27913;42.722;23.268;2022-12-07T01:05:30;94887.69;;;5.05;96.06
42247;BME280;27913;42.722;23.268;2022-12-07T01:07:55;94861.38;;;4.90;95.74
42247;BME280;27913;42.722;23.268;2022-12-07T01:10:21;94941.31;;;5.43;95.91
42247;BME280;27913;42.722;23.268;2022-12-07T01:12:46;94816.50;;;4.70;95.89
42247;BME280;27913;42.722;23.268;2022-12-07T01:15:12;94862.22;;;4.99;96.21
42247;BME280;27913;42.722;23.268;2022-12-07T01:17:37;94972.41;;;5.71;96.48
42247;BME280;27913;42.722;23.268;2022-12-07T01:20:03;94986.44;;;5.70;96.69
42247;BME280;27913;42.722;23.268;2022-12-07T01:22:29;94853.25;;;4.93;96.79
42247;BME280;27913;42.722;23.268;2022-12-07T01:24:54;94971.41;;;5.64;96.94
42247;BME280;27913;42.722;23.268;2022-12-07T01:27:20;94853.44;;;4.92;97.24
42247;BME280;27913;42.722;23.268;2022-12-07T01:29:45;94890.31;;;5.05;96.99
42247;BME280;27913;42.722;23.268;2022-12-07T01:32:11;94858.22;;;4.78;98.02
42247;BME280;27913;42.722;23.268;2022-12-07T01:34:37;94967.03;;;5.38;97.98
42247;BME280;27913;42.722;23.268;2022-12-07T01:37:02;94759.38;;;4.15;98.09
42247;BME280;27913;42.722;23.268;2022-12-07T01:39:27;94967.25;;;5.44;97.83
42247;BME280;27913;42.722;23.268;2022-12-07T01:41:53;94954.50;;;5.41;98.09
42247;BME280;27913;42.722;23.268;2022-12-07T01:44:24;94967.34;;;5.35;98.18
42247;BME280;27913;42.722;23.268;2022-12-07T01:46:57;94695.47;;;3.68;98.32
42247;BME280;27913;42.722;23.268;2022-12-07T01:51:51;94811.75;;;4.39;98.83
42247;BME280;27913;42.722;23.268;2022-12-07T01:54:18;94958.72;;;5.34;98.82
42247;BME280;27913;42.722;23.268;2022-12-07T01:56:51;94777.19;;;4.28;98.76
42247;BME280;27913;42.722;23.268;2022-12-07T01:59:21;94948.78;;;5.38;98.81
42247;BME280;27913;42.722;23.268;2022-12-07T02:01:48;94723.28;;;3.94;98.35
42247;BME280;27913;42.722;23.268;2022-12-07T02:04:14;94954.22;;;5.44;98.45
42247;BME280;27913;42.722;23.268;2022-12-07T02:06:41;94950.94;;;5.42;98.72
42247;BME280;27913;42.722;23.268;2022-12-07T02:09:07;94946.06;;;5.48;98.42
42247;BME280;27913;42.722;23.268;2022-12-07T02:11:32;94815.66;;;4.69;98.21
42247;BME280;27913;42.722;23.268;2022-12-07T02:13:58;94905.38;;;5.20;98.55
42247;BME280;27913;42.722;23.268;2022-12-07T02:16:46;94940.19;;;5.46;98.50
42247;BME280;27913;42.722;23.268;2022-12-07T02:22:59;94845.88;;;4.89;98.27
42247;BME280;27913;42.722;23.268;2022-12-07T02:25:59;94906.31;;;5.19;98.31
42247;BME280;27913;42.722;23.268;2022-12-07T02:30:55;94776.72;;;4.33;99.98
42247;BME280;27913;42.722;23.268;2022-12-07T02:33:31;94686.56;;;3.70;100.00
42247;BME280;27913;42.722;23.268;2022-12-07T02:36:05;94727.59;;;4.03;100.00
42247;BME280;27913;42.722;23.268;2022-12-07T02:38:35;94885.91;;;5.06;100.00
42247;BME280;27913;42.722;23.268;2022-12-07T02:41:07;94945.19;;;5.30;100.00
42247;BME280;27913;42.722;23.268;2022-12-07T02:43:39;94815.28;;;4.56;99.75
42247;BME280;27913;42.722;23.268;2022-12-07T02:46:11;94935.56;;;5.31;99.58
42247;BME280;27913;42.722;23.268;2022-12-07T02:48:38;94881.66;;;5.05;99.52
42247;BME280;27913;42.722;23.268;2022-12-07T02:51:04;94926.94;;;5.30;99.10
42247;BME280;27913;42.722;23.268;2022-12-07T02:53:36;94837.19;;;4.71;98.72
42247;BME280;27913;42.722;23.268;2022-12-07T02:56:30;94888.88;;;5.11;99.01
42247;BME280;27913;42.722;23.268;2022-12-07T03:06:43;94914.50;;;5.24;98.81
42247;BME280;27913;42.722;23.268;2022-12-07T03:09:29;94786.06;;;4.44;98.64
42247;BME280;27913;42.722;23.268;2022-12-07T03:12:28;94903.88;;;5.17;98.95
42247;BME280;27913;42.722;23.268;2022-12-07T03:15:03;94852.69;;;4.81;99.03
42247;BME280;27913;42.722;23.268;2022-12-07T03:17:32;94908.25;;;5.17;99.35
42247;BME280;27913;42.722;23.268;2022-12-07T03:20:02;94904.03;;;5.16;99.55
42247;BME280;27913;42.722;23.268;2022-12-07T03:22:31;94911.03;;;5.15;99.65
42247;BME280;27913;42.722;23.268;2022-12-07T03:24:58;94846.13;;;4.69;100.00
42247;BME280;27913;42.722;23.268;2022-12-07T03:27:33;94910.13;;;4.98;100.00
42247;BME280;27913;42.722;23.268;2022-12-07T03:30:03;94921.41;;;5.07;100.00
42247;BME280;27913;42.722;23.268;2022-12-07T03:32:35;94922.09;;;5.09;100.00
42247;BME280;27913;42.722;23.268;2022-12-07T03:37:37;94921.47;;;5.15;100.00
42247;BME280;27913;42.722;23.268;2022-12-07T03:42:40;94921.81;;;5.20;100.00
42247;BME280;27913;42.722;23.268;2022-12-07T03:45:07;94773.25;;;4.24;100.00
42247;BME280;27913;42.722;23.268;2022-12-07T03:47:38;94920.16;;;5.11;100.00
42247;BME280;27913;42.722;23.268;2022-12-07T03:53:05;94875.66;;;4.78;100.00
42247;BME280;27913;42.722;23.268;2022-12-07T03:55:39;94920.03;;;4.94;100.00
42247;BME280;27913;42.722;23.268;2022-12-07T03:58:11;94914.16;;;4.92;100.00
42247;BME280;27913;42.722;23.268;2022-12-07T04:00:37;94912.34;;;4.85;100.00
42247;BME280;27913;42.722;23.268;2022-12-07T04:03:03;94913.09;;;4.77;100.00
42247;BME280;27913;42.722;23.268;2022-12-07T04:05:29;94910.44;;;4.68;100.00
42247;BME280;27913;42.722;23.268;2022-12-07T04:07:54;94899.00;;;4.61;100.00
42247;BME280;27913;42.722;23.268;2022-12-07T04:10:20;94901.59;;;4.61;100.00
42247;BME280;27913;42.722;23.268;2022-12-07T04:12:46;94750.03;;;3.59;100.00
42247;BME280;27913;42.722;23.268;2022-12-07T04:15:11;94682.25;;;3.16;100.00
42247;BME280;27913;42.722;23.268;2022-12-07T04:17:37;94896.41;;;4.43;100.00
42247;BME280;27913;42.722;23.268;2022-12-07T04:20:03;94908.88;;;4.57;100.00
42247;BME280;27913;42.722;23.268;2022-12-07T04:22:29;94853.44;;;4.20;100.00
42247;BME280;27913;42.722;23.268;2022-12-07T04:24:55;94867.28;;;4.39;100.00
42247;BME280;27913;42.722;23.268;2022-12-07T04:27:20;94860.31;;;4.21;100.00
42247;BME280;27913;42.722;23.268;2022-12-07T04:29:45;94904.50;;;4.58;100.00
42247;BME280;27913;42.722;23.268;2022-12-07T04:32:11;94905.81;;;4.62;100.00
42247;BME280;27913;42.722;23.268;2022-12-07T04:34:37;94911.34;;;4.59;100.00
42247;BME280;27913;42.722;23.268;2022-12-07T04:37:02;94692.25;;;3.29;100.00
42247;BME280;27913;42.722;23.268;2022-12-07T04:39:29;94869.19;;;4.37;100.00
42247;BME280;27913;42.722;23.268;2022-12-07T04:41:55;94691.50;;;3.37;100.00
42247;BME280;27913;42.722;23.268;2022-12-07T04:44:22;94822.16;;;4.12;100.00
42247;BME280;27913;42.722;23.268;2022-12-07T04:46:48;94913.03;;;4.68;100.00
42247;BME280;27913;42.722;23.268;2022-12-07T04:49:14;94912.88;;;4.70;100.00
42247;BME280;27913;42.722;23.268;2022-12-07T04:51:40;94923.31;;;4.70;100.00
42247;BME280;27913;42.722;23.268;2022-12-07T04:54:06;94922.63;;;4.68;100.00
42247;BME280;27913;42.722;23.268;2022-12-07T04:56:32;94878.94;;;4.35;100.00
42247;BME280;27913;42.722;23.268;2022-12-07T04:58:59;94931.97;;;4.52;100.00
42247;BME280;27913;42.722;23.268;2022-12-07T05:01:25;94927.38;;;4.46;100.00
42247;BME280;27913;42.722;23.268;2022-12-07T05:03:50;94753.16;;;3.45;100.00
42247;BME280;27913;42.722;23.268;2022-12-07T05:06:16;94916.19;;;4.54;100.00
42247;BME280;27913;42.722;23.268;2022-12-07T05:08:42;94721.88;;;3.36;100.00
42247;BME280;27913;42.722;23.268;2022-12-07T05:11:08;94716.16;;;3.33;100.00
42247;BME280;27913;42.722;23.268;2022-12-07T05:13:35;94866.56;;;4.10;100.00
42247;BME280;27913;42.722;23.268;2022-12-07T05:16:01;94914.03;;;4.49;100.00
42247;BME280;27913;42.722;23.268;2022-12-07T05:18:27;94660.09;;;2.94;100.00
42247;BME280;27913;42.722;23.268;2022-12-07T05:20:52;94915.88;;;4.57;100.00
42247;BME280;27913;42.722;23.268;2022-12-07T05:23:18;94921.75;;;4.59;100.00
42247;BME280;27913;42.722;23.268;2022-12-07T05:25:45;94843.59;;;4.06;100.00
42247;BME280;27913;42.722;23.268;2022-12-07T05:28:10;94923.69;;;4.57;100.00
42247;BME280;27913;42.722;23.268;2022-12-07T05:30:36;94912.16;;;4.59;100.00
42247;BME280;27913;42.722;23.268;2022-12-07T05:33:02;94688.53;;;3.13;100.00
42247;BME280;27913;42.722;23.268;2022-12-07T05:35:30;94919.00;;;4.61;100.00
42247;BME280;27913;42.722;23.268;2022-12-07T05:37:55;94777.81;;;3.77;100.00
42247;BME280;27913;42.722;23.268;2022-12-07T05:40:22;94924.28;;;4.69;100.00
42247;BME280;27913;42.722;23.268;2022-12-07T05:42:47;94868.06;;;4.40;100.00
42247;BME280;27913;42.722;23.268;2022-12-07T05:45:13;94915.97;;;4.65;100.00
42247;BME280;27913;42.722;23.268;2022-12-07T05:47:38;94912.84;;;4.62;100.00
42247;BME280;27913;42.722;23.268;2022-12-07T05:50:05;94782.41;;;3.83;100.00
42247;BME280;27913;42.722;23.268;2022-12-07T05:52:31;94908.69;;;4.51;100.00
42247;BME280;27913;42.722;23.268;2022-12-07T05:54:57;94753.59;;;3.40;100.00
42247;BME280;27913;42.722;23.268;2022-12-07T05:57:23;94908.94;;;4.39;100.00
42247;BME280;27913;42.722;23.268;2022-12-07T05:59:48;94659.19;;;2.85;100.00
42247;BME280;27913;42.722;23.268;2022-12-07T06:02:15;94879.63;;;4.19;100.00
42247;BME280;27913;42.722;23.268;2022-12-07T06:04:43;94910.88;;;4.37;100.00
42247;BME280;27913;42.722;23.268;2022-12-07T06:07:09;94691.41;;;2.92;100.00
42247;BME280;27913;42.722;23.268;2022-12-07T06:09:35;94907.69;;;4.25;100.00
42247;BME280;27913;42.722;23.268;2022-12-07T06:12:02;94907.91;;;4.14;100.00
42247;BME280;27913;42.722;23.268;2022-12-07T06:14:45;94911.31;;;4.14;100.00
42247;BME280;27913;42.722;23.268;2022-12-07T06:17:11;94911.38;;;4.22;100.00
42247;BME280;27913;42.722;23.268;2022-12-07T06:19:38;94817.19;;;3.64;100.00
42247;BME280;27913;42.722;23.268;2022-12-07T06:22:04;94850.13;;;3.92;100.00
42247;BME280;27913;42.722;23.268;2022-12-07T06:24:31;94919.19;;;4.41;100.00
42247;BME280;27913;42.722;23.268;2022-12-07T06:26:56;94908.47;;;4.44;100.00
42247;BME280;27913;42.722;23.268;2022-12-07T06:29:22;94803.97;;;3.76;100.00
42247;BME280;27913;42.722;23.268;2022-12-07T06:31:47;94735.84;;;3.35;100.00
42247;BME280;27913;42.722;23.268;2022-12-07T06:34:18;94846.31;;;4.04;100.00
42247;BME280;27913;42.722;23.268;2022-12-07T06:36:44;94922.59;;;4.41;100.00
42247;BME280;27913;42.722;23.268;2022-12-07T06:39:10;94873.78;;;3.98;100.00
42247;BME280;27913;42.722;23.268;2022-12-07T06:41:36;94798.03;;;3.47;100.00
42247;BME280;27913;42.722;23.268;2022-12-07T06:44:03;94933.72;;;4.25;100.00
42247;BME280;27913;42.722;23.268;2022-12-07T06:46:28;94925.59;;;4.28;100.00
42247;BME280;27913;42.722;23.268;2022-12-07T06:48:54;94938.00;;;4.34;100.00
42247;BME280;27913;42.722;23.268;2022-12-07T06:51:19;94830.41;;;3.71;100.00
42247;BME280;27913;42.722;23.268;2022-12-07T06:53:45;94695.19;;;2.80;100.00
42247;BME280;27913;42.722;23.268;2022-12-07T06:56:10;94937.22;;;4.34;100.00
42247;BME280;27913;42.722;23.268;2022-12-07T06:58:36;94934.31;;;4.37;100.00
42247;BME280;27913;42.722;23.268;2022-12-07T07:01:02;94911.53;;;4.21;100.00
42247;BME280;27913;42.722;23.268;2022-12-07T07:03:28;94764.28;;;3.37;100.00
42247;BME280;27913;42.722;23.268;2022-12-07T07:05:54;94934.16;;;4.39;100.00
42247;BME280;27913;42.722;23.268;2022-12-07T07:08:19;94808.13;;;3.68;100.00
42247;BME280;27913;42.722;23.268;2022-12-07T07:10:45;94842.47;;;3.90;100.00
42247;BME280;27913;42.722;23.268;2022-12-07T07:13:10;94807.84;;;3.71;100.00
42247;BME280;27913;42.722;23.268;2022-12-07T07:15:38;94937.53;;;4.57;100.00
42247;BME280;27913;42.722;23.268;2022-12-07T07:18:04;94949.47;;;4.60;100.00
42247;BME280;27913;42.722;23.268;2022-12-07T07:20:29;94833.44;;;4.03;100.00
42247;BME280;27913;42.722;23.268;2022-12-07T07:22:54;94931.06;;;4.62;100.00
42247;BME280;27913;42.722;23.268;2022-12-07T07:25:20;94928.31;;;4.63;100.00
42247;BME280;27913;42.722;23.268;2022-12-07T07:27:46;94673.41;;;3.09;100.00
42247;BME280;27913;42.722;23.268;2022-12-07T07:30:12;94936.84;;;4.74;100.00
42247;BME280;27913;42.722;23.268;2022-12-07T07:32:37;94939.00;;;4.78;100.00
42247;BME280;27913;42.722;23.268;2022-12-07T07:35:03;94736.66;;;3.54;100.00
42247;BME280;27913;42.722;23.268;2022-12-07T07:37:29;94946.88;;;4.87;100.00
42247;BME280;27913;42.722;23.268;2022-12-07T07:39:54;94897.38;;;4.60;100.00
42247;BME280;27913;42.722;23.268;2022-12-07T07:42:20;94931.59;;;4.92;100.00
42247;BME280;27913;42.722;23.268;2022-12-07T07:44:45;94852.13;;;4.43;100.00
42247;BME280;27913;42.722;23.268;2022-12-07T07:47:11;94942.09;;;5.00;100.00
42247;BME280;27913;42.722;23.268;2022-12-07T07:49:37;94936.72;;;5.02;100.00
42247;BME280;27913;42.722;23.268;2022-12-07T07:52:02;94784.09;;;4.11;100.00
42247;BME280;27913;42.722;23.268;2022-12-07T07:54:28;94777.69;;;4.05;100.00
42247;BME280;27913;42.722;23.268;2022-12-07T07:56:53;94781.97;;;4.15;100.00
42247;BME280;27913;42.722;23.268;2022-12-07T07:59:19;94875.16;;;4.74;100.00
42247;BME280;27913;42.722;23.268;2022-12-07T08:01:44;94906.19;;;4.94;100.00
42247;BME280;27913;42.722;23.268;2022-12-07T08:04:10;94884.13;;;4.80;100.00
42247;BME280;27913;42.722;23.268;2022-12-07T08:06:35;94844.28;;;4.61;100.00
42247;BME280;27913;42.722;23.268;2022-12-07T08:09:02;94778.97;;;4.28;100.00
42247;BME280;27913;42.722;23.268;2022-12-07T08:11:27;94880.91;;;4.86;100.00
42247;BME280;27913;42.722;23.268;2022-12-07T08:13:53;94858.84;;;4.72;100.00
42247;BME280;27913;42.722;23.268;2022-12-07T08:16:18;94834.84;;;4.60;100.00
42247;BME280;27913;42.722;23.268;2022-12-07T08:18:44;94844.44;;;4.59;100.00
42247;BME280;27913;42.722;23.268;2022-12-07T08:21:12;94822.53;;;4.44;100.00
42247;BME280;27913;42.722;23.268;2022-12-07T08:23:38;94877.09;;;4.72;100.00
42247;BME280;27913;42.722;23.268;2022-12-07T08:26:06;94841.59;;;4.44;100.00
42247;BME280;27913;42.722;23.268;2022-12-07T08:28:32;94783.63;;;4.16;100.00
42247;BME280;27913;42.722;23.268;2022-12-07T08:31:02;94937.69;;;5.01;100.00
42247;BME280;27913;42.722;23.268;2022-12-07T08:33:28;94930.00;;;4.99;100.00
42247;BME280;27913;42.722;23.268;2022-12-07T08:35:54;94795.97;;;4.14;100.00
42247;BME280;27913;42.722;23.268;2022-12-07T08:38:20;94799.66;;;4.29;100.00
42247;BME280;27913;42.722;23.268;2022-12-07T08:40:54;94930.94;;;5.16;100.00
42247;BME280;27913;42.722;23.268;2022-12-07T08:43:20;94932.56;;;5.17;100.00
42247;BME280;27913;42.722;23.268;2022-12-07T08:45:47;94831.09;;;4.63;100.00
42247;BME280;27913;42.722;23.268;2022-12-07T08:48:14;94924.91;;;5.16;100.00
42247;BME280;27913;42.722;23.268;2022-12-07T08:50:43;94914.16;;;5.19;100.00
42247;BME280;27913;42.722;23.268;2022-12-07T08:53:08;94864.13;;;4.89;100.00
42247;BME280;27913;42.722;23.268;2022-12-07T08:55:34;94913.22;;;5.28;100.00
42247;BME280;27913;42.722;23.268;2022-12-07T08:58:00;94783.19;;;4.55;100.00
42247;BME280;27913;42.722;23.268;2022-12-07T09:00:27;94833.88;;;4.96;100.00
42247;BME280;27913;42.722;23.268;2022-12-07T09:02:58;94680.34;;;4.16;100.00
42247;BME280;27913;42.722;23.268;2022-12-07T09:05:26;94893.94;;;5.64;100.00
42247;BME280;27913;42.722;23.268;2022-12-07T09:07:55;94843.50;;;5.39;100.00
42247;BME280;27913;42.722;23.268;2022-12-07T09:10:21;94844.03;;;5.59;100.00
42247;BME280;27913;42.722;23.268;2022-12-07T09:12:47;94646.22;;;4.36;99.07
42247;BME280;27913;42.722;23.268;2022-12-07T09:15:13;94801.78;;;5.39;99.42
42247;BME280;27913;42.722;23.268;2022-12-07T09:17:38;94888.69;;;6.08;98.97
42247;BME280;27913;42.722;23.268;2022-12-07T09:20:05;94820.25;;;5.71;97.98
42247;BME280;27913;42.722;23.268;2022-12-07T09:22:31;94888.53;;;6.18;97.44
42247;BME280;27913;42.722;23.268;2022-12-07T09:25:00;94881.34;;;6.20;96.53
42247;BME280;27913;42.722;23.268;2022-12-07T09:27:26;94729.38;;;5.32;95.50
42247;BME280;27913;42.722;23.268;2022-12-07T09:29:52;94774.75;;;5.65;96.39
42247;BME280;27913;42.722;23.268;2022-12-07T09:32:17;94827.66;;;6.09;96.06
42247;BME280;27913;42.722;23.268;2022-12-07T09:34:43;94872.84;;;6.51;95.47
42247;BME280;27913;42.722;23.268;2022-12-07T09:37:08;94695.50;;;5.49;94.79
42247;BME280;27913;42.722;23.268;2022-12-07T09:39:37;94867.63;;;6.59;94.35
42247;BME280;27913;42.722;23.268;2022-12-07T09:42:03;94865.16;;;6.66;94.05
42247;BME280;27913;42.722;23.268;2022-12-07T09:44:30;94863.69;;;6.72;94.31
42247;BME280;27913;42.722;23.268;2022-12-07T09:46:55;94873.63;;;6.76;93.69
42247;BME280;27913;42.722;23.268;2022-12-07T09:49:23;94819.28;;;6.47;92.94
42247;BME280;27913;42.722;23.268;2022-12-07T09:52:18;94779.84;;;6.16;93.02
42247;BME280;27913;42.722;23.268;2022-12-07T09:54:48;94762.53;;;6.15;92.66
42247;BME280;27913;42.722;23.268;2022-12-07T09:57:14;94863.81;;;6.79;93.15
42247;BME280;27913;42.722;23.268;2022-12-07T09:59:40;94804.13;;;6.42;91.41
42247;BME280;27913;42.722;23.268;2022-12-07T10:04:58;94794.81;;;6.31;91.94
42247;BME280;27913;42.722;23.268;2022-12-07T10:07:24;94729.88;;;6.03;92.14
42247;BME280;27913;42.722;23.268;2022-12-07T10:09:50;94747.00;;;6.22;91.99
42247;BME280;27913;42.722;23.268;2022-12-07T10:12:15;94837.19;;;6.92;92.13
42247;BME280;27913;42.722;23.268;2022-12-07T10:17:31;94741.06;;;6.62;91.14
42247;BME280;27913;42.722;23.268;2022-12-07T10:20:21;94741.31;;;6.75;90.38
42247;BME280;27913;42.722;23.268;2022-12-07T10:23:12;94815.13;;;7.26;90.08
42247;BME280;27913;42.722;23.268;2022-12-07T10:25:40;94808.41;;;7.32;89.83
42247;BME280;27913;42.722;23.268;2022-12-07T10:28:12;94747.41;;;6.99;90.57
42247;BME280;27913;42.722;23.268;2022-12-07T10:30:52;94802.34;;;7.40;90.08
42247;BME280;27913;42.722;23.268;2022-12-07T10:33:48;94802.63;;;7.45;89.24
42247;BME280;27913;42.722;23.268;2022-12-07T10:38:48;94805.06;;;7.46;90.10
42247;BME280;27913;42.722;23.268;2022-12-07T10:41:14;94587.41;;;6.17;89.55
42247;BME280;27913;42.722;23.268;2022-12-07T10:43:47;94765.41;;;7.34;88.58
42247;BME280;27913;42.722;23.268;2022-12-07T10:52:33;94779.19;;;7.52;88.45
42247;BME280;27913;42.722;23.268;2022-12-07T11:03:46;94723.41;;;7.28;88.39
42247;BME280;27913;42.722;23.268;2022-12-07T11:17:17;94757.09;;;7.54;87.65
42247;BME280;27913;42.722;23.268;2022-12-07T11:20:05;94709.47;;;7.35;87.61
42247;BME280;27913;42.722;23.268;2022-12-07T11:23:04;94733.16;;;7.66;87.45
42247;BME280;27913;42.722;23.268;2022-12-07T11:25:42;94730.63;;;7.72;87.56
42247;BME280;27913;42.722;23.268;2022-12-07T11:31:05;94670.06;;;7.60;85.91
42247;BME280;27913;42.722;23.268;2022-12-07T11:33:47;94680.38;;;7.77;85.75
42247;BME280;27913;42.722;23.268;2022-12-07T11:36:37;94727.09;;;8.04;85.52
42247;BME280;27913;42.722;23.268;2022-12-07T11:42:23;94733.81;;;7.83;85.51
42247;BME280;27913;42.722;23.268;2022-12-07T11:44:55;94719.44;;;7.79;85.89
42247;BME280;27913;42.722;23.268;2022-12-07T11:47:35;94680.84;;;7.57;85.91
42247;BME280;27913;42.722;23.268;2022-12-07T11:52:51;94710.00;;;7.93;85.40
42247;BME280;27913;42.722;23.268;2022-12-07T11:55:32;94623.25;;;7.42;84.85
42247;BME280;27913;42.722;23.268;2022-12-07T12:01:08;94669.47;;;7.89;84.27
42247;BME280;27913;42.722;23.268;2022-12-07T12:03:40;94573.22;;;7.22;84.23
42247;BME280;27913;42.722;23.268;2022-12-07T12:06:08;94692.97;;;8.12;84.79
42247;BME280;27913;42.722;23.268;2022-12-07T12:08:40;94643.47;;;7.87;84.57
42247;BME280;27913;42.722;23.268;2022-12-07T12:11:34;94611.84;;;7.73;83.85
42247;BME280;27913;42.722;23.268;2022-12-07T12:17:12;94684.13;;;8.28;84.45
42247;BME280;27913;42.722;23.268;2022-12-07T12:22:28;94575.94;;;7.67;83.70
42247;BME280;27913;42.722;23.268;2022-12-07T12:24:57;94679.81;;;8.36;84.01
42247;BME280;27913;42.722;23.268;2022-12-07T12:27:35;94573.41;;;7.74;83.91
42247;BME280;27913;42.722;23.268;2022-12-07T12:30:05;94617.19;;;8.10;83.06
42247;BME280;27913;42.722;23.268;2022-12-07T12:32:42;94670.41;;;8.56;83.01
42247;BME280;27913;42.722;23.268;2022-12-07T12:35:35;94649.00;;;8.68;82.94
42247;BME280;27913;42.722;23.268;2022-12-07T12:40:45;94453.34;;;7.71;81.88
42247;BME280;27913;42.722;23.268;2022-12-07T12:51:54;94654.38;;;9.18;80.09
42247;BME280;27913;42.722;23.268;2022-12-07T12:54:23;94637.56;;;9.13;79.71
42247;BME280;27913;42.722;23.268;2022-12-07T12:59:29;94649.44;;;9.30;79.56
42247;BME280;27913;42.722;23.268;2022-12-07T13:02:01;94642.19;;;9.33;79.17
42247;BME280;27913;42.722;23.268;2022-12-07T13:05:00;94657.50;;;9.29;78.96
42247;BME280;27913;42.722;23.268;2022-12-07T13:18:41;94605.84;;;8.70;80.51
42247;BME280;27913;42.722;23.268;2022-12-07T13:31:40;94640.69;;;9.23;80.14
42247;BME280;27913;42.722;23.268;2022-12-07T13:34:40;94632.44;;;9.26;80.21
42247;BME280;27913;42.722;23.268;2022-12-07T13:37:28;94578.16;;;9.05;79.90
42247;BME280;27913;42.722;23.268;2022-12-07T13:39:59;94589.84;;;9.02;79.37
42247;BME280;27913;42.722;23.268;2022-12-07T13:42:28;94597.78;;;9.09;79.41
42247;BME280;27913;42.722;23.268;2022-12-07T13:44:55;94636.13;;;9.32;79.83
42247;BME280;27913;42.722;23.268;2022-12-07T13:47:46;94627.63;;;9.30;80.13
42247;BME280;27913;42.722;23.268;2022-12-07T13:50:29;94600.16;;;9.04;80.48
42247;BME280;27913;42.722;23.268;2022-12-07T13:52:57;94636.06;;;9.25;80.56
42247;BME280;27913;42.722;23.268;2022-12-07T13:55:23;94621.44;;;9.16;80.52
42247;BME280;27913;42.722;23.268;2022-12-07T13:57:51;94645.09;;;9.23;80.60
42247;BME280;27913;42.722;23.268;2022-12-07T14:00:22;94648.94;;;9.20;80.61
42247;BME280;27913;42.722;23.268;2022-12-07T14:03:01;94626.69;;;9.16;80.74
42247;BME280;27913;42.722;23.268;2022-12-07T14:05:32;94516.06;;;8.46;81.02
42247;BME280;27913;42.722;23.268;2022-12-07T14:08:01;94565.72;;;8.70;81.23
42247;BME280;27913;42.722;23.268;2022-12-07T14:13:34;94630.34;;;9.00;81.62
42247;BME280;27913;42.722;23.268;2022-12-07T14:16:02;94598.38;;;8.67;82.72
42247;BME280;27913;42.722;23.268;2022-12-07T14:23:36;94642.97;;;8.89;82.74
42247;BME280;27913;42.722;23.268;2022-12-07T14:26:35;94633.28;;;8.90;82.67
42247;BME280;27913;42.722;23.268;2022-12-07T14:29:27;94642.50;;;8.86;82.62
42247;BME280;27913;42.722;23.268;2022-12-07T14:31:55;94639.28;;;8.84;82.91
42247;BME280;27913;42.722;23.268;2022-12-07T14:34:22;94649.16;;;8.81;83.02
42247;BME280;27913;42.722;23.268;2022-12-07T14:36:47;94648.31;;;8.81;83.16
42247;BME280;27913;42.722;23.268;2022-12-07T14:39:13;94648.31;;;8.81;83.38
42247;BME280;27913;42.722;23.268;2022-12-07T14:41:38;94656.56;;;8.78;83.38
42247;BME280;27913;42.722;23.268;2022-12-07T14:44:16;94646.44;;;8.75;83.31
42247;BME280;27913;42.722;23.268;2022-12-07T14:46:42;94653.69;;;8.73;83.60
42247;BME280;27913;42.722;23.268;2022-12-07T14:49:07;94485.66;;;7.63;83.94
42247;BME280;27913;42.722;23.268;2022-12-07T14:51:35;94649.97;;;8.67;83.96
42247;BME280;27913;42.722;23.268;2022-12-07T14:54:04;94640.84;;;8.63;84.14
42247;BME280;27913;42.722;23.268;2022-12-07T14:56:30;94621.50;;;8.49;84.26
42247;BME280;27913;42.722;23.268;2022-12-07T14:58:56;94596.41;;;8.24;84.32
42247;BME280;27913;42.722;23.268;2022-12-07T15:01:21;94651.59;;;8.53;84.56
42247;BME280;27913;42.722;23.268;2022-12-07T15:03:47;94659.00;;;8.49;84.53
42247;BME280;27913;42.722;23.268;2022-12-07T15:06:15;94661.81;;;8.48;84.76
42247;BME280;27913;42.722;23.268;2022-12-07T15:08:40;94639.84;;;8.49;85.08